This is the latest recevied weather packets stored in our database for station/object VK3ABC-13. If no packets are shown the sender has not sent any weather packets the latest 10 day(s).
| Time | Temp. | Humidity | Pressure | Rain* | Wind** | Luminosity | Snow |
|---|---|---|---|---|---|---|---|
| 1778061913 | 12.22° C | 89% | 1012.6 hPa | 2.54 mm | - | 0 W/m² | - |
| 1778061312 | 12.78° C | 89% | 1012.4 hPa | 2.54 mm | - | 0 W/m² | - |
| 1778061013 | 12.78° C | 89% | 1012.5 hPa | 2.29 mm | - | 0 W/m² | - |
| 1778060712 | 12.78° C | 89% | 1012.4 hPa | 1.52 mm | - | 0 W/m² | - |
| 1778058912 | 12.78° C | 89% | 1011.4 hPa | 5.59 mm | - | 0 W/m² | - |
| 1778058613 | 12.78° C | 88% | 1011.5 hPa | 6.6 mm | - | 0 W/m² | - |
| 1778058311 | 12.78° C | 88% | 1011.6 hPa | 6.6 mm | - | 0 W/m² | - |
| 1778056814 | 13.89° C | 84% | 1011.7 hPa | 5.08 mm | - | 0 W/m² | - |
| 1778051712 | 15.56° C | 69% | 1010.4 hPa | 0 mm | - | 7 W/m² | - |
| 1778050814 | 15.56° C | 68% | 1010.6 hPa | 0 mm | - | 12 W/m² | - |
| 1778048112 | 16.67° C | 63% | 1011.2 hPa | 0 mm | - | 25 W/m² | - |
| 1778047512 | 17.22° C | 61% | 1011.4 hPa | 0 mm | - | 28 W/m² | - |
| 1778046613 | 17.78° C | 60% | 1011.6 hPa | 0 mm | - | 109 W/m² | - |
| 1778045413 | 17.78° C | 60% | 1012.1 hPa | 0 mm | - | 309 W/m² | - |
| 1778042112 | 18.33° C | 58% | 1013 hPa | 0 mm | - | 397 W/m² | - |
| 1778041512 | 18.89° C | 59% | 1013.1 hPa | 0 mm | - | 520 W/m² | - |
| 1778040311 | 18.33° C | 57% | 1013.3 hPa | 0 mm | - | 504 W/m² | - |
| 1778039712 | 18.33° C | 56% | 1013.6 hPa | 0 mm | - | 304 W/m² | - |
| 1778039112 | 18.33° C | 57% | 1013.7 hPa | 0 mm | - | 649 W/m² | - |
| 1778038512 | 17.78° C | 59% | 1013.7 hPa | 0 mm | - | 591 W/m² | - |
| 1778037014 | 17.78° C | 58% | 1014.3 hPa | 0 mm | - | 237 W/m² | - |
| 1778035512 | 17.78° C | 59% | 1014.8 hPa | 0 mm | - | 519 W/m² | - |
| 1778034911 | 17.22° C | 60% | 1014.9 hPa | 0 mm | - | 519 W/m² | - |
| 1778033412 | 16.67° C | 60% | 1015.5 hPa | 0 mm | - | 248 W/m² | - |
| 1778032511 | 16.11° C | 61% | 1015.8 hPa | 0 mm | - | 211 W/m² | - |
* Rain latest hour (hover to see other rain measurements)
** Current wind speed in m/s (hover to see current wind gust speed)